Time,TemperatureF,DewpointF,PressureIn,WindDirection,WindDirectionDegrees,WindSpeedMPH,WindSpeedGustMPH,Humidity,HourlyPrecipIn,Conditions,Clouds,dailyrainin,SolarRadiationWatts/m^2,SoftwareType,DateUTC
2013-02-26 00:01:00,47.9,27.0,30.06,ENE,72,0.0,2.0,44,0.00,,,0.00,0000,Weather View 32 v70,2013-02-26 08:01:00,
2013-02-26 00:06:00,48.2,26.7,30.05,ENE,72,0.0,2.0,43,0.00,,,0.00,0000,Weather View 32 v70,2013-02-26 08:06:00,
2013-02-26 00:11:00,48.2,27.3,30.05,ENE,72,0.0,2.0,44,0.00,,,0.00,0000,Weather View 32 v70,2013-02-26 08:11:00,
2013-02-26 00:16:00,48.5,27.0,30.06,ENE,72,0.0,2.0,43,0.00,,,0.00,0000,Weather View 32 v70,2013-02-26 08:16:00,
2013-02-26 00:21:00,48.8,26.7,30.05,ENE,72,0.0,2.0,42,0.00,,,0.00,0000,Weather View 32 v70,2013-02-26 08:21:00,
2013-02-26 00:26:00,49.2,26.5,30.05,ENE,72,0.0,2.0,41,0.00,,,0.00,0000,Weather View 32 v70,2013-02-26 08:26:00,
2013-02-26 00:31:00,49.5,26.7,30.05,ENE,72,0.0,2.0,41,0.00,,,0.00,0000,Weather View 32 v70,2013-02-26 08:31:00,
2013-02-26 00:36:00,49.9,27.1,30.05,ENE,72,0.0,2.0,41,0.00,,,0.00,0000,Weather View 32 v70,2013-02-26 08:36:00,
2013-02-26 00:41:00,49.7,26.9,30.04,ENE,72,0.0,1.0,41,0.00,,,0.00,0000,Weather View 32 v70,2013-02-26 08:41:00,
2013-02-26 00:46:00,49.2,27.0,30.04,ENE,72,0.0,1.0,42,0.00,,,0.00,0000,Weather View 32 v70,2013-02-26 08:46:00,
2013-02-26 00:51:00,48.8,27.8,30.04,ENE,72,0.0,2.0,44,0.00,,,0.00,0000,Weather View 32 v70,2013-02-26 08:51:00,
2013-02-26 00:56:00,48.8,26.7,30.05,ENE,72,0.0,2.0,42,0.00,,,0.00,0000,Weather View 32 v70,2013-02-26 08:56:00,
2013-02-26 01:01:00,48.8,26.7,30.04,ENE,72,0.0,2.0,42,0.00,,,0.00,0000,Weather View 32 v70,2013-02-26 09:01:00,
2013-02-26 01:06:00,49.2,26.5,30.04,ENE,72,0.0,2.0,41,0.00,,,0.00,0000,Weather View 32 v70,2013-02-26 09:06:00,
2013-02-26 01:11:00,48.9,26.8,30.04,ENE,72,0.0,2.0,42,0.00,,,0.00,0000,Weather View 32 v70,2013-02-26 09:11:00,
2013-02-26 01:16:00,48.3,26.8,30.03,ENE,72,0.0,2.0,43,0.00,,,0.00,0000,Weather View 32 v70,2013-02-26 09:16:00,
2013-02-26 01:21:00,48.5,26.4,30.03,ENE,72,0.0,2.0,42,0.00,,,0.00,0000,Weather View 32 v70,2013-02-26 09:21:00,
2013-02-26 01:26:00,49.1,26.4,30.03,ENE,72,0.0,2.0,41,0.00,,,0.00,0000,Weather View 32 v70,2013-02-26 09:26:00,
2013-02-26 01:31:00,49.1,26.4,30.03,ENE,72,0.0,2.0,41,0.00,,,0.00,0000,Weather View 32 v70,2013-02-26 09:31:00,
2013-02-26 01:36:00,49.2,26.5,30.03,ENE,72,0.0,2.0,41,0.00,,,0.00,0000,Weather View 32 v70,2013-02-26 09:36:00,
2013-02-26 01:41:00,49.0,26.3,30.02,ENE,72,0.0,2.0,41,0.00,,,0.00,0000,Weather View 32 v70,2013-02-26 09:41:00,
2013-02-26 01:46:00,49.0,26.3,30.02,ENE,72,0.0,2.0,41,0.00,,,0.00,0000,Weather View 32 v70,2013-02-26 09:46:00,
2013-02-26 01:51:00,48.9,25.6,30.02,ENE,72,0.0,1.0,40,0.00,,,0.00,0000,Weather View 32 v70,2013-02-26 09:51:00,
2013-02-26 01:56:00,49.2,25.9,30.01,ENE,72,0.0,1.0,40,0.00,,,0.00,0000,Weather View 32 v70,2013-02-26 09:56:00,
2013-02-26 02:01:00,49.4,26.0,30.01,ENE,72,0.0,2.0,40,0.00,,,0.00,0000,Weather View 32 v70,2013-02-26 10:01:00,
2013-02-26 02:06:00,47.5,26.1,30.01,ENE,72,0.0,2.0,43,0.00,,,0.00,0000,Weather View 32 v70,2013-02-26 10:06:00,
2013-02-26 02:11:00,46.6,25.8,30.02,ENE,72,0.0,2.0,44,0.00,,,0.00,0000,Weather View 32 v70,2013-02-26 10:11:00,
2013-02-26 02:16:00,46.3,25.5,30.01,ENE,72,0.0,2.0,44,0.00,,,0.00,0000,Weather View 32 v70,2013-02-26 10:16:00,
2013-02-26 02:21:00,46.5,25.2,30.01,ENE,72,0.0,2.0,43,0.00,,,0.00,0000,Weather View 32 v70,2013-02-26 10:21:00,
2013-02-26 02:26:00,47.5,25.5,30.01,ENE,72,0.0,2.0,42,0.00,,,0.00,0000,Weather View 32 v70,2013-02-26 10:26:00,
2013-02-26 02:31:00,48.5,24.6,30.01,ENE,72,0.0,2.0,39,0.00,,,0.00,0000,Weather View 32 v70,2013-02-26 10:31:00,
2013-02-26 02:36:00,48.0,25.4,30.00,ENE,72,0.0,2.0,41,0.00,,,0.00,0000,Weather View 32 v70,2013-02-26 10:36:00,
2013-02-26 02:41:00,48.0,24.8,30.00,ENE,71,0.0,2.0,40,0.00,,,0.00,0000,Weather View 32 v70,2013-02-26 10:41:00,
2013-02-26 02:46:00,49.1,24.5,30.00,ENE,71,0.0,2.0,38,0.00,,,0.00,0000,Weather View 32 v70,2013-02-26 10:46:00,
2013-02-26 02:51:00,49.5,25.5,30.00,ENE,71,0.0,2.0,39,0.00,,,0.00,0000,Weather View 32 v70,2013-02-26 10:51:00,
2013-02-26 02:56:00,50.0,24.7,30.00,ENE,71,0.0,2.0,37,0.00,,,0.00,0000,Weather View 32 v70,2013-02-26 10:56:00,
2013-02-26 03:01:00,49.3,24.7,30.00,ENE,76,4.0,4.0,38,0.00,,,0.00,0000,Weather View 32 v70,2013-02-26 11:01:00,
2013-02-26 03:06:00,48.1,23.6,30.00,East,90,0.0,4.0,38,0.00,,,0.00,0000,Weather View 32 v70,2013-02-26 11:06:00,
2013-02-26 03:11:00,48.1,24.3,30.00,East,90,0.0,4.0,39,0.00,,,0.00,0000,Weather View 32 v70,2013-02-26 11:11:00,
2013-02-26 03:16:00,48.6,23.5,30.00,East,91,0.0,4.0,37,0.00,,,0.00,0000,Weather View 32 v70,2013-02-26 11:16:00,
2013-02-26 03:21:00,48.6,23.5,29.99,East,90,0.0,4.0,37,0.00,,,0.00,0000,Weather View 32 v70,2013-02-26 11:21:00,
2013-02-26 03:26:00,47.9,24.1,29.99,East,90,0.0,4.0,39,0.00,,,0.00,0000,Weather View 32 v70,2013-02-26 11:26:00,
2013-02-26 03:31:00,47.8,23.4,29.99,East,90,0.0,4.0,38,0.00,,,0.00,0000,Weather View 32 v70,2013-02-26 11:31:00,
2013-02-26 03:36:00,47.8,23.4,30.00,East,90,0.0,4.0,38,0.00,,,0.00,0000,Weather View 32 v70,2013-02-26 11:36:00,
2013-02-26 03:41:00,48.1,23.0,29.99,East,90,0.0,4.0,37,0.00,,,0.00,0000,Weather View 32 v70,2013-02-26 11:41:00,
2013-02-26 03:46:00,48.4,23.3,29.99,East,90,0.0,4.0,37,0.00,,,0.00,0000,Weather View 32 v70,2013-02-26 11:46:00,
2013-02-26 03:51:00,48.0,22.9,29.99,East,90,1.0,4.0,37,0.00,,,0.00,0000,Weather View 32 v70,2013-02-26 11:51:00,
2013-02-26 03:56:00,48.6,23.5,29.99,East,90,0.0,4.0,37,0.00,,,0.00,0000,Weather View 32 v70,2013-02-26 11:56:00,
2013-02-26 04:01:00,48.5,22.7,29.99,East,90,0.0,4.0,36,0.00,,,0.00,0000,Weather View 32 v70,2013-02-26 12:01:00,
2013-02-26 04:06:00,48.8,23.0,29.99,East,90,0.0,2.0,36,0.00,,,0.00,0000,Weather View 32 v70,2013-02-26 12:06:00,
2013-02-26 04:11:00,48.2,23.1,29.99,East,90,0.0,1.0,37,0.00,,,0.00,0000,Weather View 32 v70,2013-02-26 12:11:00,
2013-02-26 04:16:00,47.8,23.4,29.99,East,90,0.0,1.0,38,0.00,,,0.00,0000,Weather View 32 v70,2013-02-26 12:16:00,
2013-02-26 04:21:00,48.1,23.0,29.99,East,90,0.0,1.0,37,0.00,,,0.00,0000,Weather View 32 v70,2013-02-26 12:21:00,
2013-02-26 04:26:00,47.9,22.8,29.99,East,90,0.0,1.0,37,0.00,,,0.00,0000,Weather View 32 v70,2013-02-26 12:26:00,
2013-02-26 04:31:00,47.8,23.4,29.99,East,90,0.0,1.0,38,0.00,,,0.00,0000,Weather View 32 v70,2013-02-26 12:31:00,
2013-02-26 04:36:00,47.9,23.5,29.99,East,90,0.0,1.0,38,0.00,,,0.00,0000,Weather View 32 v70,2013-02-26 12:36:00,
2013-02-26 04:41:00,47.5,23.7,29.99,East,90,0.0,1.0,39,0.00,,,0.00,0000,Weather View 32 v70,2013-02-26 12:41:00,
2013-02-26 04:46:00,47.2,22.8,29.99,East,90,0.0,1.0,38,0.00,,,0.00,0000,Weather View 32 v70,2013-02-26 12:46:00,
2013-02-26 04:51:00,47.3,23.6,29.99,East,86,0.0,2.0,39,0.00,,,0.00,0000,Weather View 32 v70,2013-02-26 12:51:00,
2013-02-26 04:56:00,47.7,22.7,29.99,East,86,0.0,2.0,37,0.00,,,0.00,0000,Weather View 32 v70,2013-02-26 12:56:00,
2013-02-26 05:01:00,48.2,23.1,29.99,East,86,0.0,2.0,37,0.00,,,0.00,0000,Weather View 32 v70,2013-02-26 13:01:00,
2013-02-26 05:06:00,48.3,23.8,29.99,East,86,0.0,2.0,38,0.00,,,0.00,0000,Weather View 32 v70,2013-02-26 13:06:00,
2013-02-26 05:11:00,47.7,22.7,29.99,ENE,78,1.0,2.0,37,0.00,,,0.00,0000,Weather View 32 v70,2013-02-26 13:11:00,
2013-02-26 05:16:00,47.0,23.3,29.99,North,360,0.0,4.0,39,0.00,,,0.00,0000,Weather View 32 v70,2013-02-26 13:16:00,
2013-02-26 05:21:00,46.5,22.8,29.99,North,360,0.0,4.0,39,0.00,,,0.00,0000,Weather View 32 v70,2013-02-26 13:21:00,
2013-02-26 05:26:00,47.4,23.0,29.99,North,360,0.0,4.0,38,0.00,,,0.00,0000,Weather View 32 v70,2013-02-26 13:26:00,
2013-02-26 05:31:00,46.6,23.5,30.00,North,5,0.0,4.0,40,0.00,,,0.00,0000,Weather View 32 v70,2013-02-26 13:31:00,
2013-02-26 05:36:00,45.8,22.8,29.99,North,5,0.0,4.0,40,0.00,,,0.00,0000,Weather View 32 v70,2013-02-26 13:36:00,
2013-02-26 05:41:00,45.8,22.8,29.99,North,360,1.0,4.0,40,0.00,,,0.00,0000,Weather View 32 v70,2013-02-26 13:41:00,
2013-02-26 05:46:00,45.5,22.5,30.00,North,5,0.0,4.0,40,0.00,,,0.00,0000,Weather View 32 v70,2013-02-26 13:46:00,
2013-02-26 05:51:00,45.4,23.0,30.00,North,360,0.0,4.0,41,0.00,,,0.00,0000,Weather View 32 v70,2013-02-26 13:51:00,
2013-02-26 05:56:00,44.4,23.3,30.00,North,360,0.0,4.0,43,0.00,,,0.00,0000,Weather View 32 v70,2013-02-26 13:56:00,
2013-02-26 06:01:00,44.4,22.7,30.00,North,5,0.0,4.0,42,0.00,,,0.00,0000,Weather View 32 v70,2013-02-26 14:01:00,
2013-02-26 06:06:00,44.9,23.2,30.00,North,5,0.0,4.0,42,0.00,,,0.00,0000,Weather View 32 v70,2013-02-26 14:06:00,
2013-02-26 06:11:00,45.0,22.7,30.00,North,5,0.0,4.0,41,0.00,,,0.00,0000,Weather View 32 v70,2013-02-26 14:11:00,
2013-02-26 06:16:00,45.1,22.8,30.00,North,360,0.0,2.0,41,0.00,,,0.00,0000,Weather View 32 v70,2013-02-26 14:16:00,
2013-02-26 06:21:00,45.0,22.7,30.00,North,5,0.0,2.0,41,0.00,,,0.00,0000,Weather View 32 v70,2013-02-26 14:21:00,
2013-02-26 06:26:00,44.9,23.2,30.00,North,5,0.0,2.0,42,0.00,,,0.00,0000,Weather View 32 v70,2013-02-26 14:26:00,
2013-02-26 06:31:00,44.9,22.6,30.00,North,5,0.0,2.0,41,0.00,,,0.00,0005,Weather View 32 v70,2013-02-26 14:31:00,
2013-02-26 06:36:00,45.4,23.0,30.00,North,5,0.0,2.0,41,0.00,,,0.00,0007,Weather View 32 v70,2013-02-26 14:36:00,
2013-02-26 06:41:00,45.6,22.6,30.00,North,5,0.0,2.0,40,0.00,,,0.00,0012,Weather View 32 v70,2013-02-26 14:41:00,
2013-02-26 06:46:00,46.6,22.9,30.00,North,5,0.0,1.0,39,0.00,,,0.00,0023,Weather View 32 v70,2013-02-26 14:46:00,
2013-02-26 06:51:00,45.6,23.2,30.00,North,360,0.0,1.0,41,0.00,,,0.00,0025,Weather View 32 v70,2013-02-26 14:51:00,
2013-02-26 06:56:00,46.3,24.4,30.00,North,5,0.0,1.0,42,0.00,,,0.00,0030,Weather View 32 v70,2013-02-26 14:56:00,
2013-02-26 07:01:00,47.3,24.2,30.00,North,5,0.0,1.0,40,0.00,,,0.00,0035,Weather View 32 v70,2013-02-26 15:01:00,
2013-02-26 07:06:00,44.5,24.4,30.00,SSE,155,0.0,5.0,45,0.00,,,0.00,0051,Weather View 32 v70,2013-02-26 15:06:00,
2013-02-26 07:11:00,45.0,26.0,30.00,SSE,155,0.0,5.0,47,0.00,,,0.00,0040,Weather View 32 v70,2013-02-26 15:11:00,
2013-02-26 07:16:00,47.2,26.4,30.00,SSE,155,0.0,5.0,44,0.00,,,0.00,0083,Weather View 32 v70,2013-02-26 15:16:00,
2013-02-26 07:21:00,48.8,27.3,30.00,SSE,155,0.0,5.0,43,0.00,,,0.00,0063,Weather View 32 v70,2013-02-26 15:21:00,
2013-02-26 07:26:00,48.7,24.8,30.00,SSE,155,0.0,5.0,39,0.00,,,0.00,0118,Weather View 32 v70,2013-02-26 15:26:00,
2013-02-26 07:31:00,49.2,27.0,30.01,SSE,155,0.0,5.0,42,0.00,,,0.00,0128,Weather View 32 v70,2013-02-26 15:31:00,
2013-02-26 07:36:00,50.5,27.0,30.01,SSE,155,0.0,5.0,40,0.00,,,0.00,0149,Weather View 32 v70,2013-02-26 15:36:00,
2013-02-26 07:41:00,50.9,24.8,30.01,SSE,155,0.0,5.0,36,0.00,,,0.00,0086,Weather View 32 v70,2013-02-26 15:41:00,
2013-02-26 07:46:00,51.0,24.3,30.01,SSE,155,0.0,5.0,35,0.00,,,0.00,0207,Weather View 32 v70,2013-02-26 15:46:00,
2013-02-26 07:51:00,51.1,27.0,30.01,SSE,155,0.0,5.0,39,0.00,,,0.00,0121,Weather View 32 v70,2013-02-26 15:51:00,
2013-02-26 07:56:00,51.3,24.5,30.02,SSE,155,0.0,5.0,35,0.00,,,0.00,0193,Weather View 32 v70,2013-02-26 15:56:00,
2013-02-26 08:01:00,52.6,25.0,30.01,SSE,155,0.0,5.0,34,0.00,,,0.00,0269,Weather View 32 v70,2013-02-26 16:01:00,
2013-02-26 08:06:00,52.9,25.9,30.01,SSE,155,0.0,1.0,35,0.00,,,0.00,0207,Weather View 32 v70,2013-02-26 16:06:00,
2013-02-26 08:11:00,53.3,27.6,30.01,SSE,155,2.0,2.0,37,0.00,,,0.00,0309,Weather View 32 v70,2013-02-26 16:11:00,
2013-02-26 08:16:00,52.3,27.4,30.02,SSE,155,0.0,4.0,38,0.00,,,0.00,0311,Weather View 32 v70,2013-02-26 16:16:00,
2013-02-26 08:21:00,52.4,26.2,30.02,SSE,155,1.0,4.0,36,0.00,,,0.00,0346,Weather View 32 v70,2013-02-26 16:21:00,
2013-02-26 08:26:00,52.6,25.7,30.02,SSE,155,0.0,4.0,35,0.00,,,0.00,0364,Weather View 32 v70,2013-02-26 16:26:00,
2013-02-26 08:31:00,54.1,27.0,30.02,SSE,155,0.0,4.0,35,0.00,,,0.00,0378,Weather View 32 v70,2013-02-26 16:31:00,
2013-02-26 08:36:00,55.0,29.8,30.02,SSE,155,0.0,4.0,38,0.00,,,0.00,0397,Weather View 32 v70,2013-02-26 16:36:00,
2013-02-26 08:41:00,55.4,28.1,30.03,SSE,155,0.0,4.0,35,0.00,,,0.00,0413,Weather View 32 v70,2013-02-26 16:41:00,
2013-02-26 08:46:00,55.5,28.2,30.03,SSW,198,0.0,4.0,35,0.00,,,0.00,0431,Weather View 32 v70,2013-02-26 16:46:00,
2013-02-26 08:51:00,56.4,29.0,30.03,SSW,200,0.0,4.0,35,0.00,,,0.00,0446,Weather View 32 v70,2013-02-26 16:51:00,
2013-02-26 08:56:00,57.2,28.3,30.03,WSW,245,0.0,4.0,33,0.00,,,0.00,0466,Weather View 32 v70,2013-02-26 16:56:00,
2013-02-26 09:01:00,59.0,29.1,30.03,WSW,246,0.0,4.0,32,0.00,,,0.00,0482,Weather View 32 v70,2013-02-26 17:01:00,
2013-02-26 09:06:00,59.5,27.2,30.03,WSW,245,0.0,4.0,29,0.00,,,0.00,0497,Weather View 32 v70,2013-02-26 17:06:00,
2013-02-26 09:11:00,59.5,27.2,30.03,WSW,246,0.0,4.0,29,0.00,,,0.00,0513,Weather View 32 v70,2013-02-26 17:11:00,
2013-02-26 09:16:00,60.0,27.6,30.04,WSW,249,0.0,2.0,29,0.00,,,0.00,0536,Weather View 32 v70,2013-02-26 17:16:00,
2013-02-26 09:21:00,60.5,26.3,30.04,WSW,249,0.0,2.0,27,0.00,,,0.00,0517,Weather View 32 v70,2013-02-26 17:21:00,
2013-02-26 09:26:00,60.2,32.4,30.04,WSW,249,0.0,2.0,35,0.00,,,0.00,0536,Weather View 32 v70,2013-02-26 17:26:00,
2013-02-26 09:31:00,60.7,29.8,30.04,WSW,249,0.0,2.0,31,0.00,,,0.00,0573,Weather View 32 v70,2013-02-26 17:31:00,
2013-02-26 09:36:00,61.3,29.5,30.04,WSW,249,0.0,2.0,30,0.00,,,0.00,0584,Weather View 32 v70,2013-02-26 17:36:00,
2013-02-26 09:41:00,61.3,31.1,30.04,West,263,0.0,2.0,32,0.00,,,0.00,0598,Weather View 32 v70,2013-02-26 17:41:00,
2013-02-26 09:46:00,61.7,29.1,30.04,West,263,0.0,2.0,29,0.00,,,0.00,0615,Weather View 32 v70,2013-02-26 17:46:00,
2013-02-26 09:51:00,62.9,30.9,30.05,West,263,0.0,2.0,30,0.00,,,0.00,0642,Weather View 32 v70,2013-02-26 17:51:00,
2013-02-26 09:56:00,63.5,30.6,30.05,West,263,0.0,2.0,29,0.00,,,0.00,0647,Weather View 32 v70,2013-02-26 17:56:00,
2013-02-26 10:01:00,64.2,31.2,30.04,WNW,294,0.0,2.0,29,0.00,,,0.00,0652,Weather View 32 v70,2013-02-26 18:01:00,
2013-02-26 10:06:00,64.5,30.6,30.04,WNW,296,0.0,2.0,28,0.00,,,0.00,0666,Weather View 32 v70,2013-02-26 18:06:00,
2013-02-26 10:11:00,64.5,29.7,30.04,WNW,297,0.0,2.0,27,0.00,,,0.00,0673,Weather View 32 v70,2013-02-26 18:11:00,
2013-02-26 10:16:00,64.6,31.6,30.04,NNW,327,0.0,2.0,29,0.00,,,0.00,0687,Weather View 32 v70,2013-02-26 18:16:00,
2013-02-26 10:21:00,64.9,30.0,30.04,NNW,331,0.0,2.0,27,0.00,,,0.00,0698,Weather View 32 v70,2013-02-26 18:21:00,
2013-02-26 10:26:00,65.4,30.5,30.04,NW,312,1.0,2.0,27,0.00,,,0.00,0724,Weather View 32 v70,2013-02-26 18:26:00,
2013-02-26 10:31:00,65.5,32.3,30.04,NW,307,1.0,2.0,29,0.00,,,0.00,0722,Weather View 32 v70,2013-02-26 18:31:00,
2013-02-26 10:36:00,64.7,29.9,30.04,WSW,257,0.0,5.0,27,0.00,,,0.00,0735,Weather View 32 v70,2013-02-26 18:36:00,
2013-02-26 10:41:00,65.0,30.1,30.04,West,279,0.0,5.0,27,0.00,,,0.00,0719,Weather View 32 v70,2013-02-26 18:41:00,
2013-02-26 10:46:00,64.9,30.0,30.04,West,279,0.0,5.0,27,0.00,,,0.00,0744,Weather View 32 v70,2013-02-26 18:46:00,
2013-02-26 10:51:00,66.0,31.9,30.04,West,279,0.0,5.0,28,0.00,,,0.00,0752,Weather View 32 v70,2013-02-26 18:51:00,
2013-02-26 10:56:00,67.5,32.3,30.04,WNW,287,0.0,5.0,27,0.00,,,0.00,0761,Weather View 32 v70,2013-02-26 18:56:00,
2013-02-26 11:01:00,66.6,30.6,30.03,WSW,257,0.0,5.0,26,0.00,,,0.00,0758,Weather View 32 v70,2013-02-26 19:01:00,
2013-02-26 11:06:00,67.8,31.6,30.03,WSW,257,1.0,5.0,26,0.00,,,0.00,0775,Weather View 32 v70,2013-02-26 19:06:00,
2013-02-26 11:11:00,67.4,31.2,30.03,WSW,257,1.0,5.0,26,0.00,,,0.00,0784,Weather View 32 v70,2013-02-26 19:11:00,
2013-02-26 11:16:00,68.0,31.8,30.03,West,260,1.0,5.0,26,0.00,,,0.00,0499,Weather View 32 v70,2013-02-26 19:16:00,
2013-02-26 11:21:00,67.7,33.3,30.03,NNW,336,0.0,5.0,28,0.00,,,0.00,0671,Weather View 32 v70,2013-02-26 19:21:00,
2013-02-26 11:26:00,68.3,32.9,30.03,NNW,336,0.0,5.0,27,0.00,,,0.00,0272,Weather View 32 v70,2013-02-26 19:26:00,
2013-02-26 11:31:00,70.0,31.5,30.03,NNW,334,1.0,5.0,24,0.00,,,0.00,0802,Weather View 32 v70,2013-02-26 19:31:00,
2013-02-26 11:36:00,69.5,31.0,30.03,NW,318,0.0,5.0,24,0.00,,,0.00,0805,Weather View 32 v70,2013-02-26 19:36:00,
2013-02-26 11:41:00,68.9,32.5,30.02,NW,318,0.0,5.0,26,0.00,,,0.00,0788,Weather View 32 v70,2013-02-26 19:41:00,
2013-02-26 11:46:00,69.1,31.7,30.02,WNW,296,0.0,5.0,25,0.00,,,0.00,0301,Weather View 32 v70,2013-02-26 19:46:00,
2013-02-26 11:51:00,69.5,32.1,30.02,WNW,294,0.0,5.0,25,0.00,,,0.00,0290,Weather View 32 v70,2013-02-26 19:51:00,
2013-02-26 11:56:00,69.9,32.4,30.01,NNW,336,0.0,5.0,25,0.00,,,0.00,0814,Weather View 32 v70,2013-02-26 19:56:00,
2013-02-26 12:01:00,68.7,32.3,30.01,NW,314,0.0,5.0,26,0.00,,,0.00,0691,Weather View 32 v70,2013-02-26 20:01:00,
2013-02-26 12:06:00,69.6,33.1,30.01,WNW,300,1.0,5.0,26,0.00,,,0.00,0694,Weather View 32 v70,2013-02-26 20:06:00,
2013-02-26 12:11:00,70.3,31.7,30.00,WNW,301,0.0,5.0,24,0.00,,,0.00,0817,Weather View 32 v70,2013-02-26 20:11:00,
2013-02-26 12:16:00,70.6,32.0,30.00,NNW,340,0.0,5.0,24,0.00,,,0.00,0816,Weather View 32 v70,2013-02-26 20:16:00,
2013-02-26 12:21:00,71.1,33.4,30.00,NW,315,0.0,5.0,25,0.00,,,0.00,0812,Weather View 32 v70,2013-02-26 20:21:00,
2013-02-26 12:26:00,71.0,33.3,30.00,NNW,329,0.0,4.0,25,0.00,,,0.00,0104,Weather View 32 v70,2013-02-26 20:26:00,
2013-02-26 12:31:00,71.5,33.7,30.00,NNW,331,0.0,4.0,25,0.00,,,0.00,0763,Weather View 32 v70,2013-02-26 20:31:00,
2013-02-26 12:36:00,72.2,33.3,29.99,NW,319,0.0,4.0,24,0.00,,,0.00,0062,Weather View 32 v70,2013-02-26 20:36:00,
2013-02-26 12:41:00,70.8,31.1,29.99,NW,306,0.0,4.0,23,0.00,,,0.00,0120,Weather View 32 v70,2013-02-26 20:41:00,
2013-02-26 12:46:00,71.1,32.4,29.99,WNW,302,0.0,4.0,24,0.00,,,0.00,0287,Weather View 32 v70,2013-02-26 20:46:00,
2013-02-26 12:51:00,72.0,33.1,29.99,WNW,291,0.0,4.0,24,0.00,,,0.00,0712,Weather View 32 v70,2013-02-26 20:51:00,
2013-02-26 12:56:00,72.6,33.6,29.99,WNW,290,0.0,4.0,24,0.00,,,0.00,0796,Weather View 32 v70,2013-02-26 20:56:00,
2013-02-26 13:01:00,72.6,32.6,29.99,SSE,167,0.0,4.0,23,0.00,,,0.00,0519,Weather View 32 v70,2013-02-26 21:01:00,
2013-02-26 13:06:00,73.0,35.0,29.98,WSW,248,0.0,5.0,25,0.00,,,0.00,0791,Weather View 32 v70,2013-02-26 21:06:00,
2013-02-26 13:11:00,73.6,32.3,29.98,WSW,256,0.0,5.0,22,0.00,,,0.00,0788,Weather View 32 v70,2013-02-26 21:11:00,
2013-02-26 13:16:00,73.1,33.0,29.98,WSW,256,0.0,5.0,23,0.00,,,0.00,0780,Weather View 32 v70,2013-02-26 21:16:00,
2013-02-26 13:21:00,72.3,31.2,29.98,WSW,256,0.0,5.0,22,0.00,,,0.00,0775,Weather View 32 v70,2013-02-26 21:21:00,
2013-02-26 13:26:00,72.7,32.7,29.98,West,261,0.0,5.0,23,0.00,,,0.00,0708,Weather View 32 v70,2013-02-26 21:26:00,
2013-02-26 13:31:00,73.9,33.7,29.98,NW,316,0.0,5.0,23,0.00,,,0.00,0761,Weather View 32 v70,2013-02-26 21:31:00,
2013-02-26 13:36:00,73.3,32.1,29.98,NW,311,0.0,5.0,22,0.00,,,0.00,0348,Weather View 32 v70,2013-02-26 21:36:00,
2013-02-26 13:41:00,74.2,32.8,29.98,NW,311,0.0,5.0,22,0.00,,,0.00,0348,Weather View 32 v70,2013-02-26 21:41:00,
2013-02-26 13:46:00,74.7,33.2,29.98,NW,311,0.0,5.0,22,0.00,,,0.00,0728,Weather View 32 v70,2013-02-26 21:46:00,
2013-02-26 13:51:00,73.6,32.3,29.97,NW,311,0.0,5.0,22,0.00,,,0.00,0091,Weather View 32 v70,2013-02-26 21:51:00,
2013-02-26 13:56:00,74.8,33.3,29.97,NNW,331,0.0,5.0,22,0.00,,,0.00,0668,Weather View 32 v70,2013-02-26 21:56:00,
2013-02-26 14:01:00,75.1,33.6,29.97,NW,310,0.0,5.0,22,0.00,,,0.00,0499,Weather View 32 v70,2013-02-26 22:01:00,
2013-02-26 14:06:00,75.3,32.6,29.97,WNW,294,0.0,5.0,21,0.00,,,0.00,0621,Weather View 32 v70,2013-02-26 22:06:00,
2013-02-26 14:11:00,74.8,34.4,29.97,West,263,2.0,5.0,23,0.00,,,0.00,0234,Weather View 32 v70,2013-02-26 22:11:00,
2013-02-26 14:16:00,74.0,34.8,29.97,NW,310,0.0,6.0,24,0.00,,,0.00,0666,Weather View 32 v70,2013-02-26 22:16:00,
2013-02-26 14:21:00,74.0,35.9,29.98,WNW,284,0.0,6.0,25,0.00,,,0.00,0332,Weather View 32 v70,2013-02-26 22:21:00,
2013-02-26 14:26:00,73.7,35.6,29.98,West,275,0.0,6.0,25,0.00,,,0.00,0283,Weather View 32 v70,2013-02-26 22:26:00,
2013-02-26 14:31:00,73.3,35.3,29.98,WNW,287,0.0,6.0,25,0.00,,,0.00,0241,Weather View 32 v70,2013-02-26 22:31:00,
2013-02-26 14:36:00,73.3,36.3,29.98,NW,310,0.0,6.0,26,0.00,,,0.00,0248,Weather View 32 v70,2013-02-26 22:36:00,
2013-02-26 14:41:00,73.7,35.6,29.98,NW,309,0.0,6.0,25,0.00,,,0.00,0605,Weather View 32 v70,2013-02-26 22:41:00,
2013-02-26 14:46:00,73.3,36.3,29.99,NW,308,0.0,6.0,26,0.00,,,0.00,0411,Weather View 32 v70,2013-02-26 22:46:00,
2013-02-26 14:51:00,73.5,35.4,29.99,NW,315,0.0,6.0,25,0.00,,,0.00,0322,Weather View 32 v70,2013-02-26 22:51:00,
2013-02-26 14:56:00,73.4,35.3,29.98,NW,323,0.0,6.0,25,0.00,,,0.00,0243,Weather View 32 v70,2013-02-26 22:56:00,
2013-02-26 15:01:00,73.2,35.2,29.99,WNW,303,0.0,6.0,25,0.00,,,0.00,0338,Weather View 32 v70,2013-02-26 23:01:00,
2013-02-26 15:06:00,72.6,35.7,29.99,NW,309,0.0,6.0,26,0.00,,,0.00,0341,Weather View 32 v70,2013-02-26 23:06:00,
2013-02-26 15:11:00,72.3,34.4,29.99,WNW,299,0.0,6.0,25,0.00,,,0.00,0517,Weather View 32 v70,2013-02-26 23:11:00,
2013-02-26 15:16:00,71.9,33.1,29.99,West,274,0.0,5.0,24,0.00,,,0.00,0248,Weather View 32 v70,2013-02-26 23:16:00,
2013-02-26 15:21:00,72.0,33.1,29.99,North,360,0.0,5.0,24,0.00,,,0.00,0076,Weather View 32 v70,2013-02-26 23:21:00,
2013-02-26 15:26:00,72.1,34.2,29.99,NNW,332,0.0,5.0,25,0.00,,,0.00,0373,Weather View 32 v70,2013-02-26 23:26:00,
2013-02-26 15:31:00,72.2,33.3,29.99,NW,313,0.0,5.0,24,0.00,,,0.00,0464,Weather View 32 v70,2013-02-26 23:31:00,
2013-02-26 15:36:00,71.6,32.8,29.99,NW,313,0.0,5.0,24,0.00,,,0.00,0345,Weather View 32 v70,2013-02-26 23:36:00,
2013-02-26 15:41:00,71.5,32.7,29.99,WNW,295,0.0,5.0,24,0.00,,,0.00,0418,Weather View 32 v70,2013-02-26 23:41:00,
2013-02-26 15:46:00,71.5,32.7,29.99,NW,310,0.0,5.0,24,0.00,,,0.00,0415,Weather View 32 v70,2013-02-26 23:46:00,
2013-02-26 15:51:00,71.3,32.6,29.99,NW,325,0.0,5.0,24,0.00,,,0.00,0399,Weather View 32 v70,2013-02-26 23:51:00,
2013-02-26 15:56:00,71.2,32.5,29.99,NW,325,0.0,4.0,24,0.00,,,0.00,0299,Weather View 32 v70,2013-02-26 23:56:00,
2013-02-26 16:01:00,71.3,32.6,29.99,NW,321,0.0,4.0,24,0.00,,,0.00,0362,Weather View 32 v70,2013-02-27 00:01:00,
2013-02-26 16:06:00,70.8,32.1,29.99,NW,321,0.0,4.0,24,0.00,,,0.00,0343,Weather View 32 v70,2013-02-27 00:06:00,
2013-02-26 16:11:00,70.3,31.7,29.99,NNW,334,0.0,6.0,24,0.00,,,0.00,0327,Weather View 32 v70,2013-02-27 00:11:00,
2013-02-26 16:16:00,70.0,32.5,29.99,West,277,0.0,6.0,25,0.00,,,0.00,0244,Weather View 32 v70,2013-02-27 00:16:00,
2013-02-26 16:21:00,69.6,33.1,29.99,West,276,0.0,6.0,26,0.00,,,0.00,0053,Weather View 32 v70,2013-02-27 00:21:00,
2013-02-26 16:26:00,69.3,32.9,29.99,WNW,283,0.0,6.0,26,0.00,,,0.00,0042,Weather View 32 v70,2013-02-27 00:26:00,
2013-02-26 16:31:00,68.9,32.5,29.99,WNW,292,0.0,6.0,26,0.00,,,0.00,0042,Weather View 32 v70,2013-02-27 00:31:00,
2013-02-26 16:36:00,68.5,33.1,29.99,WNW,292,0.0,6.0,27,0.00,,,0.00,0037,Weather View 32 v70,2013-02-27 00:36:00,
2013-02-26 16:41:00,68.4,33.0,29.99,WNW,292,0.0,6.0,27,0.00,,,0.00,0035,Weather View 32 v70,2013-02-27 00:41:00,
2013-02-26 16:46:00,68.2,32.9,29.99,WNW,292,0.0,6.0,27,0.00,,,0.00,0033,Weather View 32 v70,2013-02-27 00:46:00,
2013-02-26 16:51:00,67.9,33.5,29.99,WNW,292,0.0,6.0,28,0.00,,,0.00,0032,Weather View 32 v70,2013-02-27 00:51:00,
2013-02-26 16:56:00,67.6,33.3,29.99,WNW,292,0.0,6.0,28,0.00,,,0.00,0030,Weather View 32 v70,2013-02-27 00:56:00,
2013-02-26 17:01:00,67.3,33.0,29.99,WNW,292,2.0,6.0,28,0.00,,,0.00,0026,Weather View 32 v70,2013-02-27 01:01:00,
2013-02-26 17:06:00,66.7,31.6,29.99,WNW,292,0.0,6.0,27,0.00,,,0.00,0025,Weather View 32 v70,2013-02-27 01:06:00,
2013-02-26 17:11:00,66.2,32.1,29.99,WNW,292,0.0,2.0,28,0.00,,,0.00,0023,Weather View 32 v70,2013-02-27 01:11:00,
2013-02-26 17:16:00,65.9,32.7,30.00,WNW,292,0.0,2.0,29,0.00,,,0.00,0021,Weather View 32 v70,2013-02-27 01:16:00,
2013-02-26 17:21:00,65.5,32.3,30.00,WNW,292,0.0,2.0,29,0.00,,,0.00,0019,Weather View 32 v70,2013-02-27 01:21:00,
2013-02-26 17:26:00,65.1,32.0,30.00,WNW,292,0.0,2.0,29,0.00,,,0.00,0018,Weather View 32 v70,2013-02-27 01:26:00,
2013-02-26 17:31:00,64.7,31.6,30.00,WNW,292,0.0,2.0,29,0.00,,,0.00,0014,Weather View 32 v70,2013-02-27 01:31:00,
2013-02-26 17:36:00,64.5,31.5,30.00,WNW,292,0.0,2.0,29,0.00,,,0.00,0012,Weather View 32 v70,2013-02-27 01:36:00,
2013-02-26 17:41:00,63.9,31.8,30.00,WNW,292,0.0,2.0,30,0.00,,,0.00,0009,Weather View 32 v70,2013-02-27 01:41:00,
2013-02-26 17:46:00,63.4,31.4,30.00,WNW,292,0.0,2.0,30,0.00,,,0.00,0007,Weather View 32 v70,2013-02-27 01:46:00,
2013-02-26 17:51:00,63.0,30.2,30.00,WNW,292,0.0,2.0,29,0.00,,,0.00,0005,Weather View 32 v70,2013-02-27 01:51:00,
2013-02-26 17:56:00,62.9,30.1,30.01,WNW,292,0.0,2.0,29,0.00,,,0.00,0000,Weather View 32 v70,2013-02-27 01:56:00,
2013-02-26 18:01:00,62.7,29.9,30.01,WNW,292,0.0,2.0,29,0.00,,,0.00,0000,Weather View 32 v70,2013-02-27 02:01:00,
2013-02-26 18:06:00,62.5,29.7,30.01,WNW,292,0.0,1.0,29,0.00,,,0.00,0000,Weather View 32 v70,2013-02-27 02:06:00,
2013-02-26 18:11:00,62.3,29.6,30.01,WNW,292,0.0,1.0,29,0.00,,,0.00,0000,Weather View 32 v70,2013-02-27 02:11:00,
2013-02-26 18:16:00,61.7,29.9,30.01,WNW,292,0.0,1.0,30,0.00,,,0.00,0000,Weather View 32 v70,2013-02-27 02:16:00,
2013-02-26 18:21:00,60.7,29.0,30.02,WNW,292,0.0,1.0,30,0.00,,,0.00,0000,Weather View 32 v70,2013-02-27 02:21:00,
2013-02-26 18:27:00,59.5,28.8,30.02,WNW,292,0.0,1.0,31,0.00,,,0.00,0000,Weather View 32 v70,2013-02-27 02:27:00,
2013-02-26 18:32:00,59.1,29.2,30.02,WNW,292,0.0,1.0,32,0.00,,,0.00,0000,Weather View 32 v70,2013-02-27 02:32:00,
2013-02-26 18:37:00,59.3,30.1,30.02,WNW,292,0.0,1.0,33,0.00,,,0.00,0000,Weather View 32 v70,2013-02-27 02:37:00,
2013-02-26 18:42:00,59.9,30.7,30.03,WNW,292,0.0,1.0,33,0.00,,,0.00,0000,Weather View 32 v70,2013-02-27 02:42:00,
2013-02-26 18:47:00,59.7,29.7,30.03,WNW,292,0.0,1.0,32,0.00,,,0.00,0000,Weather View 32 v70,2013-02-27 02:47:00,
2013-02-26 18:52:00,58.9,29.8,30.03,WNW,292,0.0,1.0,33,0.00,,,0.00,0000,Weather View 32 v70,2013-02-27 02:52:00,
2013-02-26 18:57:00,58.9,29.8,30.03,WNW,292,0.0,1.0,33,0.00,,,0.00,0000,Weather View 32 v70,2013-02-27 02:57:00,
2013-02-26 19:02:00,59.0,29.9,30.04,WNW,292,0.0,1.0,33,0.00,,,0.00,0000,Weather View 32 v70,2013-02-27 03:02:00,
2013-02-26 19:07:00,58.5,29.4,30.04,WNW,292,0.0,1.0,33,0.00,,,0.00,0000,Weather View 32 v70,2013-02-27 03:07:00,
2013-02-26 19:12:00,57.4,29.9,30.04,WNW,292,0.0,1.0,35,0.00,,,0.00,0000,Weather View 32 v70,2013-02-27 03:12:00,
2013-02-26 19:17:00,57.5,29.3,30.05,WNW,292,0.0,1.0,34,0.00,,,0.00,0000,Weather View 32 v70,2013-02-27 03:17:00,
2013-02-26 19:22:00,57.6,29.4,30.05,WNW,292,0.0,1.0,34,0.00,,,0.00,0000,Weather View 32 v70,2013-02-27 03:22:00,
2013-02-26 19:27:00,57.8,29.6,30.05,WNW,292,0.0,1.0,34,0.00,,,0.00,0000,Weather View 32 v70,2013-02-27 03:27:00,
2013-02-26 19:32:00,57.8,29.6,30.05,WNW,292,0.0,1.0,34,0.00,,,0.00,0000,Weather View 32 v70,2013-02-27 03:32:00,
2013-02-26 19:37:00,57.4,28.5,30.05,WNW,292,0.0,1.0,33,0.00,,,0.00,0000,Weather View 32 v70,2013-02-27 03:37:00,
2013-02-26 19:42:00,56.6,29.2,30.05,WNW,292,0.0,1.0,35,0.00,,,0.00,0000,Weather View 32 v70,2013-02-27 03:42:00,
2013-02-26 19:47:00,56.6,29.2,30.05,WNW,292,0.0,1.0,35,0.00,,,0.00,0000,Weather View 32 v70,2013-02-27 03:47:00,
2013-02-26 19:52:00,56.9,29.5,30.05,WNW,292,0.0,1.0,35,0.00,,,0.00,0000,Weather View 32 v70,2013-02-27 03:52:00,
2013-02-26 19:57:00,56.7,29.3,30.05,WNW,292,0.0,1.0,35,0.00,,,0.00,0000,Weather View 32 v70,2013-02-27 03:57:00,
2013-02-26 20:02:00,56.2,28.1,30.05,WNW,292,0.0,1.0,34,0.00,,,0.00,0000,Weather View 32 v70,2013-02-27 04:02:00,
2013-02-26 20:07:00,55.4,28.1,30.05,NNW,344,0.0,2.0,35,0.00,,,0.00,0000,Weather View 32 v70,2013-02-27 04:07:00,
2013-02-26 20:12:00,55.4,28.1,30.05,NNW,344,0.0,2.0,35,0.00,,,0.00,0000,Weather View 32 v70,2013-02-27 04:12:00,
2013-02-26 20:17:00,55.6,27.6,30.06,NNW,344,0.0,2.0,34,0.00,,,0.00,0000,Weather View 32 v70,2013-02-27 04:17:00,
2013-02-26 20:22:00,55.3,27.4,30.06,NNW,344,0.0,2.0,34,0.00,,,0.00,0000,Weather View 32 v70,2013-02-27 04:22:00,
2013-02-26 20:27:00,55.7,27.7,30.06,NNW,344,0.0,2.0,34,0.00,,,0.00,0000,Weather View 32 v70,2013-02-27 04:27:00,
2013-02-26 20:32:00,55.3,27.4,30.06,NNW,344,0.0,2.0,34,0.00,,,0.00,0000,Weather View 32 v70,2013-02-27 04:32:00,
2013-02-26 20:37:00,55.6,26.9,30.06,NNW,344,0.0,2.0,33,0.00,,,0.00,0000,Weather View 32 v70,2013-02-27 04:37:00,
2013-02-26 20:42:00,55.5,26.1,30.06,NNW,344,0.0,2.0,32,0.00,,,0.00,0000,Weather View 32 v70,2013-02-27 04:42:00,
2013-02-26 20:47:00,56.1,25.8,30.06,NNW,344,0.0,2.0,31,0.00,,,0.00,0000,Weather View 32 v70,2013-02-27 04:47:00,
2013-02-26 20:52:00,55.0,27.1,30.07,NNW,344,0.0,2.0,34,0.00,,,0.00,0000,Weather View 32 v70,2013-02-27 04:52:00,
2013-02-26 20:57:00,54.3,26.5,30.07,NNW,344,0.0,2.0,34,0.00,,,0.00,0000,Weather View 32 v70,2013-02-27 04:57:00,
2013-02-26 21:00:00,54.3,25.8,30.07,NNW,344,0.0,2.0,33,0.00,,,0.00,0000,Weather View 32 v70,2013-02-27 05:00:00,
2013-02-26 21:01:00,54.4,25.8,30.07,NNW,344,0.0,2.0,33,0.00,,,0.00,0000,Weather View 32 v70,2013-02-27 05:01:00,
2013-02-26 21:06:00,54.3,25.8,30.08,NNW,344,0.0,2.0,33,0.00,,,0.00,0000,Weather View 32 v70,2013-02-27 05:06:00,
2013-02-26 21:11:00,54.3,25.8,30.08,NNW,344,0.0,2.0,33,0.00,,,0.00,0000,Weather View 32 v70,2013-02-27 05:11:00,
2013-02-26 21:16:00,54.2,24.2,30.08,NNW,344,0.0,2.0,31,0.00,,,0.00,0000,Weather View 32 v70,2013-02-27 05:16:00,
2013-02-26 21:21:00,54.4,23.6,30.09,NNW,344,0.0,2.0,30,0.00,,,0.00,0000,Weather View 32 v70,2013-02-27 05:21:00,
2013-02-26 21:26:00,54.1,23.3,30.09,NNW,344,0.0,2.0,30,0.00,,,0.00,0000,Weather View 32 v70,2013-02-27 05:26:00,
2013-02-26 21:31:00,53.9,23.9,30.09,NNW,344,0.0,2.0,31,0.00,,,0.00,0000,Weather View 32 v70,2013-02-27 05:31:00,
2013-02-26 21:36:00,53.4,23.5,30.09,NNW,344,0.0,2.0,31,0.00,,,0.00,0000,Weather View 32 v70,2013-02-27 05:36:00,
2013-02-26 21:41:00,53.2,24.0,30.09,NNW,344,0.0,2.0,32,0.00,,,0.00,0000,Weather View 32 v70,2013-02-27 05:41:00,
2013-02-26 21:46:00,52.8,22.9,30.09,NNW,344,0.0,2.0,31,0.00,,,0.00,0000,Weather View 32 v70,2013-02-27 05:46:00,
2013-02-26 21:51:00,52.9,23.0,30.09,NNW,344,0.0,2.0,31,0.00,,,0.00,0000,Weather View 32 v70,2013-02-27 05:51:00,
2013-02-26 21:56:00,52.8,22.9,30.09,NNW,344,0.0,2.0,31,0.00,,,0.00,0000,Weather View 32 v70,2013-02-27 05:56:00,
2013-02-26 22:01:00,52.8,22.2,30.09,NNW,344,0.0,2.0,30,0.00,,,0.00,0000,Weather View 32 v70,2013-02-27 06:01:00,
2013-02-26 22:06:00,53.0,23.1,30.09,NNW,344,0.0,1.0,31,0.00,,,0.00,0000,Weather View 32 v70,2013-02-27 06:06:00,
2013-02-26 22:11:00,53.5,22.0,30.09,NNW,344,0.0,1.0,29,0.00,,,0.00,0000,Weather View 32 v70,2013-02-27 06:11:00,
2013-02-26 22:16:00,53.8,23.0,30.09,NNW,344,0.0,1.0,30,0.00,,,0.00,0000,Weather View 32 v70,2013-02-27 06:16:00,
2013-02-26 22:21:00,53.9,22.3,30.10,NNW,344,0.0,1.0,29,0.00,,,0.00,0000,Weather View 32 v70,2013-02-27 06:21:00,
2013-02-26 22:26:00,54.1,22.5,30.10,NNW,344,0.0,1.0,29,0.00,,,0.00,0000,Weather View 32 v70,2013-02-27 06:26:00,
2013-02-26 22:31:00,53.9,21.5,30.10,NNW,344,0.0,1.0,28,0.00,,,0.00,0000,Weather View 32 v70,2013-02-27 06:31:00,
2013-02-26 22:36:00,53.7,21.3,30.10,NNW,344,0.0,1.0,28,0.00,,,0.00,0000,Weather View 32 v70,2013-02-27 06:36:00,
2013-02-26 22:41:00,53.8,21.4,30.10,NNW,344,0.0,1.0,28,0.00,,,0.00,0000,Weather View 32 v70,2013-02-27 06:41:00,
2013-02-26 22:46:00,53.0,20.7,30.10,NNW,344,0.0,1.0,28,0.00,,,0.00,0000,Weather View 32 v70,2013-02-27 06:46:00,
2013-02-26 22:51:00,53.1,20.8,30.10,NNW,344,0.0,1.0,28,0.00,,,0.00,0000,Weather View 32 v70,2013-02-27 06:51:00,
2013-02-26 22:56:00,52.8,20.5,30.11,NNW,344,0.0,1.0,28,0.00,,,0.00,0000,Weather View 32 v70,2013-02-27 06:56:00,
2013-02-26 23:01:00,53.1,19.9,30.11,NNW,344,0.0,1.0,27,0.00,,,0.00,0000,Weather View 32 v70,2013-02-27 07:01:00,
2013-02-26 23:06:00,53.0,19.9,30.11,NNW,344,0.0,1.0,27,0.00,,,0.00,0000,Weather View 32 v70,2013-02-27 07:06:00,
2013-02-26 23:11:00,52.9,19.8,30.11,NNW,344,0.0,1.0,27,0.00,,,0.00,0000,Weather View 32 v70,2013-02-27 07:11:00,
2013-02-26 23:16:00,52.9,19.8,30.11,NNW,344,0.0,1.0,27,0.00,,,0.00,0000,Weather View 32 v70,2013-02-27 07:16:00,
2013-02-26 23:21:00,52.4,19.3,30.12,NNW,344,0.0,1.0,27,0.00,,,0.00,0000,Weather View 32 v70,2013-02-27 07:21:00,
2013-02-26 23:26:00,52.8,19.7,30.12,NNW,344,0.0,1.0,27,0.00,,,0.00,0000,Weather View 32 v70,2013-02-27 07:26:00,
2013-02-26 23:31:00,53.3,20.1,30.12,NNW,344,0.0,1.0,27,0.00,,,0.00,0000,Weather View 32 v70,2013-02-27 07:31:00,
2013-02-26 23:36:00,52.8,19.7,30.12,NNW,344,0.0,1.0,27,0.00,,,0.00,0000,Weather View 32 v70,2013-02-27 07:36:00,
2013-02-26 23:41:00,52.7,20.4,30.12,NNW,344,0.0,1.0,28,0.00,,,0.00,0000,Weather View 32 v70,2013-02-27 07:41:00,
2013-02-26 23:46:00,52.8,21.4,30.12,NNW,344,0.0,1.0,29,0.00,,,0.00,0000,Weather View 32 v70,2013-02-27 07:46:00,
2013-02-26 23:51:00,52.3,19.3,30.12,NNW,344,0.0,1.0,27,0.00,,,0.00,0000,Weather View 32 v70,2013-02-27 07:51:00,
2013-02-26 23:56:00,52.4,18.5,30.12,NNW,344,0.0,1.0,26,0.00,,,0.00,0000,Weather View 32 v70,2013-02-27 07:56:00,